sensor_id;sensor_type;location;lat;lon;timestamp;temperature;humidity
7516;DHT22;3799;47.184;8.538;2024-01-25T00:00:46;10.80;99.90
7516;DHT22;3799;47.184;8.538;2024-01-25T00:03:18;10.70;99.90
7516;DHT22;3799;47.184;8.538;2024-01-25T00:05:55;10.80;99.90
7516;DHT22;3799;47.184;8.538;2024-01-25T00:08:30;10.60;99.90
7516;DHT22;3799;47.184;8.538;2024-01-25T00:11:04;10.60;99.90
7516;DHT22;3799;47.184;8.538;2024-01-25T00:13:38;10.90;99.90
7516;DHT22;3799;47.184;8.538;2024-01-25T00:16:10;10.80;99.90
7516;DHT22;3799;47.184;8.538;2024-01-25T00:19:03;10.60;99.90
7516;DHT22;3799;47.184;8.538;2024-01-25T00:21:41;10.60;99.90
7516;DHT22;3799;47.184;8.538;2024-01-25T00:24:12;10.60;99.90
7516;DHT22;3799;47.184;8.538;2024-01-25T00:26:43;10.60;99.90
7516;DHT22;3799;47.184;8.538;2024-01-25T00:29:14;10.60;99.90
7516;DHT22;3799;47.184;8.538;2024-01-25T00:31:44;10.80;99.90
7516;DHT22;3799;47.184;8.538;2024-01-25T00:34:18;10.60;99.90
7516;DHT22;3799;47.184;8.538;2024-01-25T00:36:49;10.60;99.90
7516;DHT22;3799;47.184;8.538;2024-01-25T00:39:28;10.50;99.90
7516;DHT22;3799;47.184;8.538;2024-01-25T00:42:05;10.80;99.90
7516;DHT22;3799;47.184;8.538;2024-01-25T00:44:38;10.50;99.90
7516;DHT22;3799;47.184;8.538;2024-01-25T00:47:07;10.90;99.90
7516;DHT22;3799;47.184;8.538;2024-01-25T00:49:42;10.70;99.90
7516;DHT22;3799;47.184;8.538;2024-01-25T00:52:19;10.60;99.90
7516;DHT22;3799;47.184;8.538;2024-01-25T00:54:51;10.60;99.90
7516;DHT22;3799;47.184;8.538;2024-01-25T00:57:22;10.80;99.90
7516;DHT22;3799;47.184;8.538;2024-01-25T00:59:54;10.50;99.90
7516;DHT22;3799;47.184;8.538;2024-01-25T01:02:27;10.70;99.90
7516;DHT22;3799;47.184;8.538;2024-01-25T01:05:07;10.70;99.90
7516;DHT22;3799;47.184;8.538;2024-01-25T01:07:40;10.40;99.90
7516;DHT22;3799;47.184;8.538;2024-01-25T01:10:18;10.60;99.90
7516;DHT22;3799;47.184;8.538;2024-01-25T01:12:51;10.60;99.90
7516;DHT22;3799;47.184;8.538;2024-01-25T01:15:24;10.70;99.90
7516;DHT22;3799;47.184;8.538;2024-01-25T01:17:52;10.40;99.90
7516;DHT22;3799;47.184;8.538;2024-01-25T01:20:20;10.50;99.90
7516;DHT22;3799;47.184;8.538;2024-01-25T01:22:48;10.70;99.90
7516;DHT22;3799;47.184;8.538;2024-01-25T01:25:17;10.40;99.90
7516;DHT22;3799;47.184;8.538;2024-01-25T01:27:45;10.30;99.90
7516;DHT22;3799;47.184;8.538;2024-01-25T01:33:35;10.40;99.90
7516;DHT22;3799;47.184;8.538;2024-01-25T01:36:22;10.50;99.90
7516;DHT22;3799;47.184;8.538;2024-01-25T01:39:07;10.60;99.90
7516;DHT22;3799;47.184;8.538;2024-01-25T01:41:34;10.40;99.90
7516;DHT22;3799;47.184;8.538;2024-01-25T01:44:09;10.70;99.90
7516;DHT22;3799;47.184;8.538;2024-01-25T01:46:43;10.40;99.90
7516;DHT22;3799;47.184;8.538;2024-01-25T01:49:34;10.60;99.90
7516;DHT22;3799;47.184;8.538;2024-01-25T01:52:09;10.50;99.90
7516;DHT22;3799;47.184;8.538;2024-01-25T01:54:51;10.60;99.90
7516;DHT22;3799;47.184;8.538;2024-01-25T01:57:21;10.50;99.90
7516;DHT22;3799;47.184;8.538;2024-01-25T01:59:58;10.50;99.90
7516;DHT22;3799;47.184;8.538;2024-01-25T02:02:43;10.60;99.90
7516;DHT22;3799;47.184;8.538;2024-01-25T02:05:20;10.50;99.90
7516;DHT22;3799;47.184;8.538;2024-01-25T02:07:51;10.60;99.90
7516;DHT22;3799;47.184;8.538;2024-01-25T02:10:23;10.40;99.90
7516;DHT22;3799;47.184;8.538;2024-01-25T02:12:54;10.30;99.90
7516;DHT22;3799;47.184;8.538;2024-01-25T02:15:24;10.50;99.90
7516;DHT22;3799;47.184;8.538;2024-01-25T02:17:52;10.30;99.90
7516;DHT22;3799;47.184;8.538;2024-01-25T02:20:29;10.40;99.90
7516;DHT22;3799;47.184;8.538;2024-01-25T02:23:07;10.20;99.90
7516;DHT22;3799;47.184;8.538;2024-01-25T02:25:38;10.20;99.90
7516;DHT22;3799;47.184;8.538;2024-01-25T02:28:08;10.30;99.90
7516;DHT22;3799;47.184;8.538;2024-01-25T02:30:36;10.50;99.90
7516;DHT22;3799;47.184;8.538;2024-01-25T02:33:04;10.40;99.90
7516;DHT22;3799;47.184;8.538;2024-01-25T02:35:36;10.10;99.90
7516;DHT22;3799;47.184;8.538;2024-01-25T02:38:04;10.30;99.90
7516;DHT22;3799;47.184;8.538;2024-01-25T02:40:33;10.40;99.90
7516;DHT22;3799;47.184;8.538;2024-01-25T02:43:07;10.10;99.90
7516;DHT22;3799;47.184;8.538;2024-01-25T02:45:35;10.30;99.90
7516;DHT22;3799;47.184;8.538;2024-01-25T02:48:03;10.50;99.90
7516;DHT22;3799;47.184;8.538;2024-01-25T02:50:54;10.20;99.90
7516;DHT22;3799;47.184;8.538;2024-01-25T02:53:29;10.30;99.90
7516;DHT22;3799;47.184;8.538;2024-01-25T02:55:59;10.50;99.90
7516;DHT22;3799;47.184;8.538;2024-01-25T02:58:27;10.10;99.90
7516;DHT22;3799;47.184;8.538;2024-01-25T03:00:58;10.30;99.90
7516;DHT22;3799;47.184;8.538;2024-01-25T03:03:26;10.40;99.90
7516;DHT22;3799;47.184;8.538;2024-01-25T03:05:56;10.40;99.90
7516;DHT22;3799;47.184;8.538;2024-01-25T03:08:24;10.20;99.90
7516;DHT22;3799;47.184;8.538;2024-01-25T03:10:55;10.50;99.90
7516;DHT22;3799;47.184;8.538;2024-01-25T03:13:28;10.50;99.90
7516;DHT22;3799;47.184;8.538;2024-01-25T03:15:55;10.40;99.90
7516;DHT22;3799;47.184;8.538;2024-01-25T03:18:28;10.30;99.90
7516;DHT22;3799;47.184;8.538;2024-01-25T03:20:58;10.20;99.90
7516;DHT22;3799;47.184;8.538;2024-01-25T03:23:27;10.40;99.90
7516;DHT22;3799;47.184;8.538;2024-01-25T03:25:55;10.40;99.90
7516;DHT22;3799;47.184;8.538;2024-01-25T03:28:36;10.40;99.90
7516;DHT22;3799;47.184;8.538;2024-01-25T03:31:10;10.60;99.90
7516;DHT22;3799;47.184;8.538;2024-01-25T03:33:44;10.60;99.90
7516;DHT22;3799;47.184;8.538;2024-01-25T03:36:16;10.60;99.90
7516;DHT22;3799;47.184;8.538;2024-01-25T03:38:51;10.50;99.90
7516;DHT22;3799;47.184;8.538;2024-01-25T03:41:21;10.50;99.90
7516;DHT22;3799;47.184;8.538;2024-01-25T03:43:58;10.70;99.90
7516;DHT22;3799;47.184;8.538;2024-01-25T03:46:29;10.60;99.90
7516;DHT22;3799;47.184;8.538;2024-01-25T03:48:58;10.80;99.90
7516;DHT22;3799;47.184;8.538;2024-01-25T03:51:38;10.50;99.90
7516;DHT22;3799;47.184;8.538;2024-01-25T03:54:07;10.70;99.90
7516;DHT22;3799;47.184;8.538;2024-01-25T03:56:42;10.60;99.90
7516;DHT22;3799;47.184;8.538;2024-01-25T03:59:19;10.70;99.90
7516;DHT22;3799;47.184;8.538;2024-01-25T04:01:50;10.40;99.90
7516;DHT22;3799;47.184;8.538;2024-01-25T04:04:18;10.70;99.90
7516;DHT22;3799;47.184;8.538;2024-01-25T04:06:47;10.60;99.90
7516;DHT22;3799;47.184;8.538;2024-01-25T04:09:19;10.70;99.90
7516;DHT22;3799;47.184;8.538;2024-01-25T04:11:53;10.60;99.90
7516;DHT22;3799;47.184;8.538;2024-01-25T04:14:20;10.70;99.90
7516;DHT22;3799;47.184;8.538;2024-01-25T04:16:50;10.70;99.90
7516;DHT22;3799;47.184;8.538;2024-01-25T04:19:21;10.40;99.90
7516;DHT22;3799;47.184;8.538;2024-01-25T04:21:49;10.50;99.90
7516;DHT22;3799;47.184;8.538;2024-01-25T04:24:17;10.70;99.90
7516;DHT22;3799;47.184;8.538;2024-01-25T04:26:51;10.70;99.90
7516;DHT22;3799;47.184;8.538;2024-01-25T04:29:22;10.50;99.90
7516;DHT22;3799;47.184;8.538;2024-01-25T04:31:50;10.60;99.90
7516;DHT22;3799;47.184;8.538;2024-01-25T04:34:27;10.50;99.90
7516;DHT22;3799;47.184;8.538;2024-01-25T04:36:55;10.50;99.90
7516;DHT22;3799;47.184;8.538;2024-01-25T04:39:25;10.70;99.90
7516;DHT22;3799;47.184;8.538;2024-01-25T04:41:55;10.80;99.90
7516;DHT22;3799;47.184;8.538;2024-01-25T04:44:25;10.50;99.90
7516;DHT22;3799;47.184;8.538;2024-01-25T04:47:07;10.70;99.90
7516;DHT22;3799;47.184;8.538;2024-01-25T04:49:40;10.50;99.90
7516;DHT22;3799;47.184;8.538;2024-01-25T04:52:20;10.70;99.90
7516;DHT22;3799;47.184;8.538;2024-01-25T04:54:54;10.80;99.90
7516;DHT22;3799;47.184;8.538;2024-01-25T04:57:37;10.90;99.90
7516;DHT22;3799;47.184;8.538;2024-01-25T05:00:08;11.00;99.90
7516;DHT22;3799;47.184;8.538;2024-01-25T05:02:46;10.80;99.90
7516;DHT22;3799;47.184;8.538;2024-01-25T05:05:15;11.00;99.90
7516;DHT22;3799;47.184;8.538;2024-01-25T05:07:47;10.80;99.90
7516;DHT22;3799;47.184;8.538;2024-01-25T05:10:15;11.00;99.90
7516;DHT22;3799;47.184;8.538;2024-01-25T05:12:44;10.90;99.90
7516;DHT22;3799;47.184;8.538;2024-01-25T05:15:14;11.00;99.90
7516;DHT22;3799;47.184;8.538;2024-01-25T05:17:42;11.00;99.90
7516;DHT22;3799;47.184;8.538;2024-01-25T05:20:14;11.10;99.90
7516;DHT22;3799;47.184;8.538;2024-01-25T05:22:45;11.00;99.90
7516;DHT22;3799;47.184;8.538;2024-01-25T05:25:16;10.90;99.90
7516;DHT22;3799;47.184;8.538;2024-01-25T05:27:45;11.10;99.90
7516;DHT22;3799;47.184;8.538;2024-01-25T05:30:14;10.90;99.90
7516;DHT22;3799;47.184;8.538;2024-01-25T05:32:48;10.90;99.90
7516;DHT22;3799;47.184;8.538;2024-01-25T05:35:24;11.00;99.90
7516;DHT22;3799;47.184;8.538;2024-01-25T05:38:02;11.00;99.90
7516;DHT22;3799;47.184;8.538;2024-01-25T05:40:30;11.00;99.90
7516;DHT22;3799;47.184;8.538;2024-01-25T05:43:02;11.20;99.90
7516;DHT22;3799;47.184;8.538;2024-01-25T05:45:30;11.00;99.90
7516;DHT22;3799;47.184;8.538;2024-01-25T05:47:58;11.00;99.90
7516;DHT22;3799;47.184;8.538;2024-01-25T05:50:29;10.90;99.90
7516;DHT22;3799;47.184;8.538;2024-01-25T05:52:57;10.90;99.90
7516;DHT22;3799;47.184;8.538;2024-01-25T05:55:28;11.10;99.90
7516;DHT22;3799;47.184;8.538;2024-01-25T05:57:56;11.00;99.90
7516;DHT22;3799;47.184;8.538;2024-01-25T06:00:27;11.10;99.90
7516;DHT22;3799;47.184;8.538;2024-01-25T06:02:56;11.00;99.90
7516;DHT22;3799;47.184;8.538;2024-01-25T06:05:31;11.30;99.90
7516;DHT22;3799;47.184;8.538;2024-01-25T06:08:00;10.90;99.90
7516;DHT22;3799;47.184;8.538;2024-01-25T06:10:28;11.20;99.90
7516;DHT22;3799;47.184;8.538;2024-01-25T06:12:56;11.20;99.90
7516;DHT22;3799;47.184;8.538;2024-01-25T06:15:24;11.20;99.90
7516;DHT22;3799;47.184;8.538;2024-01-25T06:17:52;11.20;99.90
7516;DHT22;3799;47.184;8.538;2024-01-25T06:20:19;11.30;99.90
7516;DHT22;3799;47.184;8.538;2024-01-25T06:22:48;11.10;99.90
7516;DHT22;3799;47.184;8.538;2024-01-25T06:25:16;11.40;99.90
7516;DHT22;3799;47.184;8.538;2024-01-25T06:27:44;11.10;99.90
7516;DHT22;3799;47.184;8.538;2024-01-25T06:30:12;10.90;99.90
7516;DHT22;3799;47.184;8.538;2024-01-25T06:32:41;11.00;99.90
7516;DHT22;3799;47.184;8.538;2024-01-25T06:35:17;11.10;99.90
7516;DHT22;3799;47.184;8.538;2024-01-25T06:37:45;11.00;99.90
7516;DHT22;3799;47.184;8.538;2024-01-25T06:40:16;11.00;99.90
7516;DHT22;3799;47.184;8.538;2024-01-25T06:42:45;11.00;99.90
7516;DHT22;3799;47.184;8.538;2024-01-25T06:45:25;10.80;99.90
7516;DHT22;3799;47.184;8.538;2024-01-25T06:47:53;10.80;99.90
7516;DHT22;3799;47.184;8.538;2024-01-25T06:50:26;10.70;99.90
7516;DHT22;3799;47.184;8.538;2024-01-25T06:52:57;10.70;99.90
7516;DHT22;3799;47.184;8.538;2024-01-25T06:55:25;10.90;99.90
7516;DHT22;3799;47.184;8.538;2024-01-25T06:57:55;11.00;99.90
7516;DHT22;3799;47.184;8.538;2024-01-25T07:00:22;11.00;99.90
7516;DHT22;3799;47.184;8.538;2024-01-25T07:02:54;10.80;99.90
7516;DHT22;3799;47.184;8.538;2024-01-25T07:05:31;10.90;99.90
7516;DHT22;3799;47.184;8.538;2024-01-25T07:08:02;10.80;99.90
7516;DHT22;3799;47.184;8.538;2024-01-25T07:10:31;11.00;99.90
7516;DHT22;3799;47.184;8.538;2024-01-25T07:12:59;10.80;99.90
7516;DHT22;3799;47.184;8.538;2024-01-25T07:15:30;10.90;99.90
7516;DHT22;3799;47.184;8.538;2024-01-25T07:17:58;11.00;99.90
7516;DHT22;3799;47.184;8.538;2024-01-25T07:20:26;11.00;99.90
7516;DHT22;3799;47.184;8.538;2024-01-25T07:22:54;10.90;99.90
7516;DHT22;3799;47.184;8.538;2024-01-25T07:25:22;11.10;99.90
7516;DHT22;3799;47.184;8.538;2024-01-25T07:27:59;10.90;99.90
7516;DHT22;3799;47.184;8.538;2024-01-25T07:30:27;11.10;99.90
7516;DHT22;3799;47.184;8.538;2024-01-25T07:32:56;10.90;99.90
7516;DHT22;3799;47.184;8.538;2024-01-25T07:35:32;11.00;99.90
7516;DHT22;3799;47.184;8.538;2024-01-25T07:38:01;10.90;99.90
7516;DHT22;3799;47.184;8.538;2024-01-25T07:40:30;10.90;99.90
7516;DHT22;3799;47.184;8.538;2024-01-25T07:43:00;10.90;99.90
7516;DHT22;3799;47.184;8.538;2024-01-25T07:45:32;11.10;99.90
7516;DHT22;3799;47.184;8.538;2024-01-25T07:48:03;11.10;99.90
7516;DHT22;3799;47.184;8.538;2024-01-25T07:50:42;10.90;99.90
7516;DHT22;3799;47.184;8.538;2024-01-25T07:53:13;10.80;99.90
7516;DHT22;3799;47.184;8.538;2024-01-25T07:55:46;11.10;99.90
7516;DHT22;3799;47.184;8.538;2024-01-25T07:58:23;11.00;99.90
7516;DHT22;3799;47.184;8.538;2024-01-25T08:00:53;11.10;99.90
7516;DHT22;3799;47.184;8.538;2024-01-25T08:03:22;11.20;99.90
7516;DHT22;3799;47.184;8.538;2024-01-25T08:05:54;11.10;99.90
7516;DHT22;3799;47.184;8.538;2024-01-25T08:08:22;11.00;99.90
7516;DHT22;3799;47.184;8.538;2024-01-25T08:10:52;11.20;99.90
7516;DHT22;3799;47.184;8.538;2024-01-25T08:13:20;11.10;99.90
7516;DHT22;3799;47.184;8.538;2024-01-25T08:15:51;11.00;99.90
7516;DHT22;3799;47.184;8.538;2024-01-25T08:18:18;11.40;99.90
7516;DHT22;3799;47.184;8.538;2024-01-25T08:20:47;11.10;99.90
7516;DHT22;3799;47.184;8.538;2024-01-25T08:23:16;11.20;99.90
7516;DHT22;3799;47.184;8.538;2024-01-25T08:25:50;11.10;99.90
7516;DHT22;3799;47.184;8.538;2024-01-25T08:28:22;11.40;99.90
7516;DHT22;3799;47.184;8.538;2024-01-25T08:30:52;11.40;99.90
7516;DHT22;3799;47.184;8.538;2024-01-25T08:33:21;11.10;99.90
7516;DHT22;3799;47.184;8.538;2024-01-25T08:35:49;11.00;99.90
7516;DHT22;3799;47.184;8.538;2024-01-25T08:38:18;11.30;99.90
7516;DHT22;3799;47.184;8.538;2024-01-25T08:40:51;11.30;99.90
7516;DHT22;3799;47.184;8.538;2024-01-25T08:43:20;11.00;99.90
7516;DHT22;3799;47.184;8.538;2024-01-25T08:45:51;11.40;99.90
7516;DHT22;3799;47.184;8.538;2024-01-25T08:48:24;11.20;99.90
7516;DHT22;3799;47.184;8.538;2024-01-25T08:50:55;11.20;99.90
7516;DHT22;3799;47.184;8.538;2024-01-25T08:53:27;11.50;99.90
7516;DHT22;3799;47.184;8.538;2024-01-25T08:55:55;11.10;99.90
7516;DHT22;3799;47.184;8.538;2024-01-25T08:58:23;11.20;99.90
7516;DHT22;3799;47.184;8.538;2024-01-25T09:00:54;11.20;99.90
7516;DHT22;3799;47.184;8.538;2024-01-25T09:03:25;11.10;99.90
7516;DHT22;3799;47.184;8.538;2024-01-25T09:06:01;11.50;99.90
7516;DHT22;3799;47.184;8.538;2024-01-25T09:08:41;11.20;99.90
7516;DHT22;3799;47.184;8.538;2024-01-25T09:11:13;11.30;99.90
7516;DHT22;3799;47.184;8.538;2024-01-25T09:13:42;11.10;99.90
7516;DHT22;3799;47.184;8.538;2024-01-25T09:16:13;11.40;99.90
7516;DHT22;3799;47.184;8.538;2024-01-25T09:18:54;11.40;99.90
7516;DHT22;3799;47.184;8.538;2024-01-25T09:21:24;11.50;99.90
7516;DHT22;3799;47.184;8.538;2024-01-25T09:23:57;11.40;99.90
7516;DHT22;3799;47.184;8.538;2024-01-25T09:26:28;11.10;99.90
7516;DHT22;3799;47.184;8.538;2024-01-25T09:28:59;11.20;99.90
7516;DHT22;3799;47.184;8.538;2024-01-25T09:31:27;11.10;99.90
7516;DHT22;3799;47.184;8.538;2024-01-25T09:33:59;11.20;99.90
7516;DHT22;3799;47.184;8.538;2024-01-25T09:36:29;11.40;99.90
7516;DHT22;3799;47.184;8.538;2024-01-25T09:38:57;11.40;99.90
7516;DHT22;3799;47.184;8.538;2024-01-25T09:41:30;11.20;99.90
7516;DHT22;3799;47.184;8.538;2024-01-25T09:44:03;11.20;99.90
7516;DHT22;3799;47.184;8.538;2024-01-25T09:46:31;11.10;99.90
7516;DHT22;3799;47.184;8.538;2024-01-25T09:49:03;11.50;99.90
7516;DHT22;3799;47.184;8.538;2024-01-25T09:51:39;11.30;99.90
7516;DHT22;3799;47.184;8.538;2024-01-25T09:54:12;11.30;99.90
7516;DHT22;3799;47.184;8.538;2024-01-25T09:57:01;11.60;99.90
7516;DHT22;3799;47.184;8.538;2024-01-25T09:59:33;11.50;99.90
7516;DHT22;3799;47.184;8.538;2024-01-25T10:02:03;11.50;99.90
7516;DHT22;3799;47.184;8.538;2024-01-25T10:04:36;11.60;99.90
7516;DHT22;3799;47.184;8.538;2024-01-25T10:07:07;11.50;99.90
7516;DHT22;3799;47.184;8.538;2024-01-25T10:09:41;11.60;99.90
7516;DHT22;3799;47.184;8.538;2024-01-25T10:12:14;11.70;99.90
7516;DHT22;3799;47.184;8.538;2024-01-25T10:14:48;11.60;99.90
7516;DHT22;3799;47.184;8.538;2024-01-25T10:17:18;11.80;99.90
7516;DHT22;3799;47.184;8.538;2024-01-25T10:19:46;11.60;99.90
7516;DHT22;3799;47.184;8.538;2024-01-25T10:22:29;11.90;99.90
7516;DHT22;3799;47.184;8.538;2024-01-25T10:25:14;11.90;99.90
7516;DHT22;3799;47.184;8.538;2024-01-25T10:27:44;11.80;99.90
7516;DHT22;3799;47.184;8.538;2024-01-25T10:30:23;11.90;99.90
7516;DHT22;3799;47.184;8.538;2024-01-25T10:32:51;11.90;99.90
7516;DHT22;3799;47.184;8.538;2024-01-25T10:35:30;12.30;99.90
7516;DHT22;3799;47.184;8.538;2024-01-25T10:38:04;12.00;99.90
7516;DHT22;3799;47.184;8.538;2024-01-25T10:40:35;12.20;99.90
7516;DHT22;3799;47.184;8.538;2024-01-25T10:43:24;12.50;99.90
7516;DHT22;3799;47.184;8.538;2024-01-25T10:45:57;12.20;99.90
7516;DHT22;3799;47.184;8.538;2024-01-25T10:48:41;12.40;99.90
7516;DHT22;3799;47.184;8.538;2024-01-25T10:51:21;12.70;99.90
7516;DHT22;3799;47.184;8.538;2024-01-25T10:53:55;12.50;99.90
7516;DHT22;3799;47.184;8.538;2024-01-25T10:56:23;12.40;99.90
7516;DHT22;3799;47.184;8.538;2024-01-25T10:58:59;12.40;99.90
7516;DHT22;3799;47.184;8.538;2024-01-25T11:01:27;12.60;99.90
7516;DHT22;3799;47.184;8.538;2024-01-25T11:07:09;12.50;99.90
7516;DHT22;3799;47.184;8.538;2024-01-25T11:09:37;12.90;99.90
7516;DHT22;3799;47.184;8.538;2024-01-25T11:12:13;12.70;99.90
7516;DHT22;3799;47.184;8.538;2024-01-25T11:14:44;12.80;99.90
7516;DHT22;3799;47.184;8.538;2024-01-25T11:17:21;13.00;99.90
7516;DHT22;3799;47.184;8.538;2024-01-25T11:19:54;12.90;99.90
7516;DHT22;3799;47.184;8.538;2024-01-25T11:22:36;12.90;99.90
7516;DHT22;3799;47.184;8.538;2024-01-25T11:25:19;13.00;99.90
7516;DHT22;3799;47.184;8.538;2024-01-25T11:27:49;12.90;99.90
7516;DHT22;3799;47.184;8.538;2024-01-25T11:30:20;12.80;99.90
7516;DHT22;3799;47.184;8.538;2024-01-25T11:32:51;12.90;99.90
7516;DHT22;3799;47.184;8.538;2024-01-25T11:35:24;12.90;99.90
7516;DHT22;3799;47.184;8.538;2024-01-25T11:38:06;13.00;99.90
7516;DHT22;3799;47.184;8.538;2024-01-25T11:41:00;13.10;99.90
7516;DHT22;3799;47.184;8.538;2024-01-25T11:43:36;13.50;99.90
7516;DHT22;3799;47.184;8.538;2024-01-25T11:46:09;13.50;99.90
7516;DHT22;3799;47.184;8.538;2024-01-25T11:48:48;13.60;99.90
7516;DHT22;3799;47.184;8.538;2024-01-25T11:51:20;13.60;99.90
7516;DHT22;3799;47.184;8.538;2024-01-25T11:54:04;14.10;99.90
7516;DHT22;3799;47.184;8.538;2024-01-25T11:56:42;14.00;99.90
7516;DHT22;3799;47.184;8.538;2024-01-25T11:59:35;14.30;99.90
7516;DHT22;3799;47.184;8.538;2024-01-25T12:02:26;14.10;99.90
7516;DHT22;3799;47.184;8.538;2024-01-25T12:05:26;14.50;99.90
7516;DHT22;3799;47.184;8.538;2024-01-25T12:08:14;14.70;99.90
7516;DHT22;3799;47.184;8.538;2024-01-25T12:11:11;14.70;99.90
7516;DHT22;3799;47.184;8.538;2024-01-25T12:14:25;14.70;99.90
7516;DHT22;3799;47.184;8.538;2024-01-25T12:17:10;14.50;99.90
7516;DHT22;3799;47.184;8.538;2024-01-25T12:19:54;15.00;99.90
7516;DHT22;3799;47.184;8.538;2024-01-25T12:22:37;14.80;99.90
7516;DHT22;3799;47.184;8.538;2024-01-25T12:28:32;15.30;99.90
7516;DHT22;3799;47.184;8.538;2024-01-25T12:31:26;15.60;99.90
7516;DHT22;3799;47.184;8.538;2024-01-25T12:33:56;15.50;99.90
7516;DHT22;3799;47.184;8.538;2024-01-25T12:36:29;15.60;99.90
7516;DHT22;3799;47.184;8.538;2024-01-25T12:39:07;15.60;99.90
7516;DHT22;3799;47.184;8.538;2024-01-25T12:41:43;15.60;99.90
7516;DHT22;3799;47.184;8.538;2024-01-25T12:44:35;15.30;99.90
7516;DHT22;3799;47.184;8.538;2024-01-25T12:47:04;15.70;99.90
7516;DHT22;3799;47.184;8.538;2024-01-25T12:49:37;15.80;99.90
7516;DHT22;3799;47.184;8.538;2024-01-25T12:52:13;15.60;99.90
7516;DHT22;3799;47.184;8.538;2024-01-25T12:54:47;15.60;99.90
7516;DHT22;3799;47.184;8.538;2024-01-25T12:57:19;15.60;99.90
7516;DHT22;3799;47.184;8.538;2024-01-25T13:00:11;15.80;99.90
7516;DHT22;3799;47.184;8.538;2024-01-25T13:02:48;15.60;99.90
7516;DHT22;3799;47.184;8.538;2024-01-25T13:05:21;15.70;99.90
7516;DHT22;3799;47.184;8.538;2024-01-25T13:07:52;15.90;99.90
7516;DHT22;3799;47.184;8.538;2024-01-25T13:10:38;15.90;99.90
7516;DHT22;3799;47.184;8.538;2024-01-25T13:13:19;16.20;99.90
7516;DHT22;3799;47.184;8.538;2024-01-25T13:16:10;16.40;99.90
7516;DHT22;3799;47.184;8.538;2024-01-25T13:18:44;16.50;99.90
7516;DHT22;3799;47.184;8.538;2024-01-25T13:21:44;16.50;99.90
7516;DHT22;3799;47.184;8.538;2024-01-25T13:24:50;16.80;99.90
7516;DHT22;3799;47.184;8.538;2024-01-25T13:27:26;17.20;99.90
7516;DHT22;3799;47.184;8.538;2024-01-25T13:30:22;17.70;99.90
7516;DHT22;3799;47.184;8.538;2024-01-25T13:33:28;18.30;99.90
7516;DHT22;3799;47.184;8.538;2024-01-25T13:36:10;18.90;99.90
7516;DHT22;3799;47.184;8.538;2024-01-25T13:38:50;19.40;99.90
7516;DHT22;3799;47.184;8.538;2024-01-25T13:41:35;19.80;99.90
7516;DHT22;3799;47.184;8.538;2024-01-25T13:47:31;20.50;96.60
7516;DHT22;3799;47.184;8.538;2024-01-25T13:50:09;20.70;94.90
7516;DHT22;3799;47.184;8.538;2024-01-25T13:53:04;20.60;93.10
7516;DHT22;3799;47.184;8.538;2024-01-25T13:55:59;20.60;92.30
7516;DHT22;3799;47.184;8.538;2024-01-25T13:58:51;20.80;91.30
7516;DHT22;3799;47.184;8.538;2024-01-25T14:01:24;20.90;90.20
7516;DHT22;3799;47.184;8.538;2024-01-25T14:03:59;20.90;90.00
7516;DHT22;3799;47.184;8.538;2024-01-25T14:06:28;21.20;89.30
7516;DHT22;3799;47.184;8.538;2024-01-25T14:08:56;21.60;85.70
7516;DHT22;3799;47.184;8.538;2024-01-25T14:11:25;22.00;81.60
7516;DHT22;3799;47.184;8.538;2024-01-25T14:14:08;22.40;78.80
7516;DHT22;3799;47.184;8.538;2024-01-25T14:20:00;22.00;72.10
7516;DHT22;3799;47.184;8.538;2024-01-25T14:23:11;21.20;71.80
7516;DHT22;3799;47.184;8.538;2024-01-25T14:25:57;20.20;75.40
7516;DHT22;3799;47.184;8.538;2024-01-25T14:29:08;19.30;79.00
7516;DHT22;3799;47.184;8.538;2024-01-25T14:31:38;18.50;83.20
7516;DHT22;3799;47.184;8.538;2024-01-25T14:34:20;17.90;87.40
7516;DHT22;3799;47.184;8.538;2024-01-25T14:36:59;17.40;91.20
7516;DHT22;3799;47.184;8.538;2024-01-25T14:39:30;17.00;93.70
7516;DHT22;3799;47.184;8.538;2024-01-25T14:42:17;16.60;97.40
7516;DHT22;3799;47.184;8.538;2024-01-25T14:45:10;16.30;99.90
7516;DHT22;3799;47.184;8.538;2024-01-25T14:47:47;16.10;99.90
7516;DHT22;3799;47.184;8.538;2024-01-25T14:50:16;16.00;99.90
7516;DHT22;3799;47.184;8.538;2024-01-25T14:52:48;16.00;99.90
7516;DHT22;3799;47.184;8.538;2024-01-25T14:55:20;15.90;99.90
7516;DHT22;3799;47.184;8.538;2024-01-25T14:57:48;15.80;99.90
7516;DHT22;3799;47.184;8.538;2024-01-25T15:00:24;15.70;99.90
7516;DHT22;3799;47.184;8.538;2024-01-25T15:02:53;15.70;99.90
7516;DHT22;3799;47.184;8.538;2024-01-25T15:05:21;15.90;99.90
7516;DHT22;3799;47.184;8.538;2024-01-25T15:07:54;16.00;99.90
7516;DHT22;3799;47.184;8.538;2024-01-25T15:10:30;16.00;99.90
7516;DHT22;3799;47.184;8.538;2024-01-25T15:12:59;15.50;99.90
7516;DHT22;3799;47.184;8.538;2024-01-25T15:15:31;15.30;99.90
7516;DHT22;3799;47.184;8.538;2024-01-25T15:18:02;15.00;99.90
7516;DHT22;3799;47.184;8.538;2024-01-25T15:20:36;14.70;99.90
7516;DHT22;3799;47.184;8.538;2024-01-25T15:23:07;14.40;99.90
7516;DHT22;3799;47.184;8.538;2024-01-25T15:25:41;14.20;99.90
7516;DHT22;3799;47.184;8.538;2024-01-25T15:28:09;14.20;99.90
7516;DHT22;3799;47.184;8.538;2024-01-25T15:30:37;13.90;99.90
7516;DHT22;3799;47.184;8.538;2024-01-25T15:33:09;13.80;99.90
7516;DHT22;3799;47.184;8.538;2024-01-25T15:35:40;13.80;99.90
7516;DHT22;3799;47.184;8.538;2024-01-25T15:38:09;13.50;99.90
7516;DHT22;3799;47.184;8.538;2024-01-25T15:40:45;13.70;99.90
7516;DHT22;3799;47.184;8.538;2024-01-25T15:43:13;13.60;99.90
7516;DHT22;3799;47.184;8.538;2024-01-25T15:45:41;13.40;99.90
7516;DHT22;3799;47.184;8.538;2024-01-25T15:48:12;13.20;99.90
7516;DHT22;3799;47.184;8.538;2024-01-25T15:50:41;13.30;99.90
7516;DHT22;3799;47.184;8.538;2024-01-25T15:53:09;12.90;99.90
7516;DHT22;3799;47.184;8.538;2024-01-25T15:55:38;12.90;99.90
7516;DHT22;3799;47.184;8.538;2024-01-25T15:58:09;13.20;99.90
7516;DHT22;3799;47.184;8.538;2024-01-25T16:00:38;13.00;99.90
7516;DHT22;3799;47.184;8.538;2024-01-25T16:03:12;12.90;99.90
7516;DHT22;3799;47.184;8.538;2024-01-25T16:05:40;12.70;99.90
7516;DHT22;3799;47.184;8.538;2024-01-25T16:08:12;12.80;99.90
7516;DHT22;3799;47.184;8.538;2024-01-25T16:10:43;12.70;99.90
7516;DHT22;3799;47.184;8.538;2024-01-25T16:13:16;12.50;99.90
7516;DHT22;3799;47.184;8.538;2024-01-25T16:15:52;12.70;99.90
7516;DHT22;3799;47.184;8.538;2024-01-25T16:18:21;12.30;99.90
7516;DHT22;3799;47.184;8.538;2024-01-25T16:20:53;12.40;99.90
7516;DHT22;3799;47.184;8.538;2024-01-25T16:23:22;12.40;99.90
7516;DHT22;3799;47.184;8.538;2024-01-25T16:25:52;12.30;99.90
7516;DHT22;3799;47.184;8.538;2024-01-25T16:28:26;12.50;99.90
7516;DHT22;3799;47.184;8.538;2024-01-25T16:30:56;12.10;99.90
7516;DHT22;3799;47.184;8.538;2024-01-25T16:33:29;12.40;99.90
7516;DHT22;3799;47.184;8.538;2024-01-25T16:35:58;12.20;99.90
7516;DHT22;3799;47.184;8.538;2024-01-25T16:38:33;12.00;99.90
7516;DHT22;3799;47.184;8.538;2024-01-25T16:41:06;12.10;99.90
7516;DHT22;3799;47.184;8.538;2024-01-25T16:43:39;12.00;99.90
7516;DHT22;3799;47.184;8.538;2024-01-25T16:46:39;12.10;99.90
7516;DHT22;3799;47.184;8.538;2024-01-25T16:49:25;12.00;99.90
7516;DHT22;3799;47.184;8.538;2024-01-25T16:52:00;12.00;99.90
7516;DHT22;3799;47.184;8.538;2024-01-25T16:54:33;12.20;99.90
7516;DHT22;3799;47.184;8.538;2024-01-25T16:57:01;12.20;99.90
7516;DHT22;3799;47.184;8.538;2024-01-25T16:59:30;12.10;99.90
7516;DHT22;3799;47.184;8.538;2024-01-25T17:01:58;11.80;99.90